Terminal Aerodrome Forecast
Issued by NWS

Home | Current Version | Previous Version | Text Only | Print | Product List | Glossary On
Versions: 1 2 3 4 5 6 7 8 9 10 11 12 13
000
FTUS45 KREV 211100
TAFTRK
TAF
KTRK 211120Z 2112/2212 VRB03KT P6SM SCT150
     FM211900 21018G28KT P6SM SCT100 BKN150
     FM220200 22009G17KT P6SM SCT080 BKN120
     FM220600 21015G25KT P6SM VCSH SCT030 BKN060
     FM221000 22010G18KT 4SM -RASN SCT015 BKN025 WS020/25045KT=

USA.gov is the U.S. government's official web portal to all federal, state and local government web resources and services.